Pagrindinis puslapis
METAR-TAF:

METAR-TAF

Oro uostai :

Selebi Pikvė, Botsvana

platuma: 22-03-19S, ilguma: 027-49-13E, Aukštis: 892 m

Dabartinis oras

Ataskaita buvo paskelbta 8 valandos ir 22 minutes, ne 18:00 UTC
Vėjas 9 kt iš Rytų
Temperatūra 22°C
Drėgmė 88%
Slėgis 1017 hPa
Matomumas 10 km arba daugiau
Apsiniaukę ne aukštis 2000 ft

METAR: FBSP 201800Z 10009KT 9999 OVC020 22/20 Q1017

Laikas: 04:22 (02:22 UTC)

Prognozė

Ataskaita buvo paskelbta 14 valandos ir 22 minutes, ne 12:00 UTC
Prognozė galioja nuo 20 metu 15 UTC su 20 metu 24 UTC
Vėjas 12 kt iš Rytų
Matomumas 10 km arba daugiau
Su prošvaistėmis ne aukštis 2500 ft

TAF: FBSP 201200Z 2015/2024 10012KT 9999 BKN025

Orai ataskaitas ir orų prognozės (METAR, TAF).

turimą stotys yra geltonos ir raudonos taškus žemėlapyje.

Perkelti pele per norėdami pamatyti stoties vardą.

Tada spustelėkite, norėdami matyti oro stebėjimo ir prognozės.

Norėdami pakeisti žemėlapį: spustelėkite ant žalios mygtukų su juodo kryžiaus žemyn,; žalią mygtuką su brūkšneliu, jei norite nutolinti; arba žalių rodyklių gretimoms žemėlapius.


METAR-TAF: